Deline, Canada
Current Conditions -  °F | °C
As of 9:00 AM on Sunday 23 Nov 2014 (Local Time) from CZFN Reporting Station
NA  
Wind Chill: -40°   Ceiling: NA
Heat Index: -26°   Visibility: NA
Dew Point: -32°   Wind: 5mph
Humidity: 73%   Direction: 210°SSW
Pressure: 30.04"   Gusts: NA
Location:  65.18°N, 123.42°W
Report Text: CZFN 231600Z AUTO 21004KT //// M32/M36 A3004 RMK SLP191 T13221355 WSI/SWOB
Loading
Personal Weather Stations






























Interactive Weather Map New forecast layout! Learn more

10-Day Weather Forecast

Advertisements
Track Severe Weather on mobile